EST,Max TemperatureF,Mean TemperatureF,Min TemperatureF,Max Dew PointF,MeanDew PointF,Min DewpointF,Max Humidity, Mean Humidity, Min Humidity, Max Sea Level PressureIn, Mean Sea Level PressureIn, Min Sea Level PressureIn, Max VisibilityMiles, Mean VisibilityMiles, Min VisibilityMiles, Max Wind SpeedMPH, Mean Wind SpeedMPH, Max Gust SpeedMPH,PrecipitationIn, CloudCover, Events, WindDirDegrees
2012-11-1,76,62,47,56,49,46,93,73,36,30.04,29.99,29.94,,,,13,2,16,0.00,,,313
2012-11-2,77,59,40,53,46,38,96,70,31,30.11,30.06,30.02,,,,13,3,18,0.00,,,270
2012-11-3,86,70,53,65,59,51,100,79,40,30.13,30.08,30.05,,,,10,3,17,0.00,,,281
2012-11-4,80,71,61,68,65,62,100,88,60,30.11,30.06,30.01,,,,13,4,17,0.04,,,227
2012-11-5,78,64,49,64,53,38,100,72,24,30.04,29.98,29.94,,,,10,3,16,0.01,,,359
2012-11-6,75,62,48,58,52,46,100,79,53,29.94,29.90,29.84,,,,16,5,26,0.02,,,316
2012-11-7,66,54,42,47,44,40,93,71,44,30.04,29.95,29.88,,,,16,5,21,0.00,,,310
2012-11-8,68,53,37,45,40,35,92,70,34,30.20,30.13,30.05,,,,10,3,17,0.00,,,351
2012-11-9,74,54,33,44,37,31,96,66,25,30.31,30.24,30.19,,,,7,1,18,0.00,,,57
2012-11-10,76,55,34,50,41,31,96,68,29,30.35,30.30,30.26,,,,8,1,24,0.00,,,57
2012-11-11,81,64,47,58,53,44,93,71,45,30.33,30.29,30.24,,,,13,3,18,0.00,,,85
2012-11-12,81,67,53,64,60,52,93,79,51,30.27,30.22,30.18,,,,9,1,13,0.00,,,204
2012-11-13,81,69,57,64,62,57,100,79,58,30.22,30.17,30.12,,,,9,4,13,0.00,,,13
2012-11-14,69,64,58,63,60,56,100,86,76,30.25,30.19,30.14,,,,10,6,16,0.01,,,51
2012-11-15,67,60,52,56,53,51,100,86,67,30.21,30.17,30.13,,,,14,7,17,0.00,,,26
2012-11-16,58,55,51,50,49,48,100,83,72,30.24,30.20,30.17,,,,14,7,17,0.00,,,37
2012-11-17,66,60,53,55,51,48,93,79,67,30.25,30.21,30.18,,,,15,8,20,0.41,,,28
2012-11-18,74,63,51,56,51,47,96,75,49,30.27,30.21,30.16,,,,13,5,18,0.00,,,34
2012-11-19,71,59,46,54,51,44,93,76,53,30.21,30.17,30.11,,,,25,5,84,0.00,,,16
2012-11-20,74,63,52,55,53,51,100,73,53,30.15,30.09,30.03,,,,14,4,21,0.00,,,359
2012-11-21,75,60,45,53,49,42,96,72,36,30.13,30.08,30.03,,,,13,3,17,0.01,,,357
2012-11-22,73,57,40,44,40,33,96,67,25,30.22,30.17,30.13,,,,16,3,21,0.00,,,23
2012-11-23,75,55,34,50,42,32,92,69,33,30.25,30.16,30.09,,,,12,2,16,0.00,,,269
2012-11-24,69,53,36,53,43,34,100,69,31,30.15,30.09,30.03,,,,13,4,16,0.00,,,334
2012-11-25,68,49,29,33,28,22,92,60,18,30.22,30.16,30.12,,,,8,1,13,0.00,,,335
2012-11-26,74,52,29,41,33,26,92,62,20,30.26,30.20,30.16,,,,7,1,10,0.00,,,65
2012-11-27,77,61,44,60,54,40,93,77,54,30.19,30.15,30.11,,,,13,3,17,0.00,,,259
2012-11-28,63,59,54,56,52,51,93,84,75,30.34,30.26,30.17,,,,14,6,17,0.04,,,25
2012-11-29,75,60,45,54,50,44,100,78,49,30.35,30.30,30.25,,,,10,4,15,0.00,,,54
2012-11-30,79,63,47,56,51,47,100,77,38,30.32,30.26,30.20,,,,8,3,14,0.00,,,48